sensor_id;sensor_type;location;lat;lon;timestamp;P1;durP1;ratioP1;P2;durP2;ratioP2
22675;SDS011;12521;43.310;21.876;2023-06-10T00:00:28;6.0;;;5.0;;
22675;SDS011;12521;43.310;21.876;2023-06-10T00:05:05;6.0;;;5.0;;
22675;SDS011;12521;43.310;21.876;2023-06-10T00:09:44;6.0;;;5.0;;
22675;SDS011;12521;43.310;21.876;2023-06-10T00:14:20;7.0;;;5.0;;
22675;SDS011;12521;43.310;21.876;2023-06-10T00:18:57;7.0;;;5.0;;
22675;SDS011;12521;43.310;21.876;2023-06-10T00:23:36;7.0;;;5.0;;
22675;SDS011;12521;43.310;21.876;2023-06-10T00:28:12;7.0;;;5.0;;
22675;SDS011;12521;43.310;21.876;2023-06-10T00:32:49;7.0;;;5.0;;
22675;SDS011;12521;43.310;21.876;2023-06-10T00:37:25;7.0;;;5.0;;
22675;SDS011;12521;43.310;21.876;2023-06-10T00:42:02;7.0;;;5.0;;
22675;SDS011;12521;43.310;21.876;2023-06-10T00:46:44;6.0;;;6.0;;
22675;SDS011;12521;43.310;21.876;2023-06-10T00:51:22;6.0;;;6.0;;
22675;SDS011;12521;43.310;21.876;2023-06-10T00:55:59;6.0;;;6.0;;
22675;SDS011;12521;43.310;21.876;2023-06-10T01:00:36;6.0;;;6.0;;
22675;SDS011;12521;43.310;21.876;2023-06-10T01:05:14;6.0;;;6.0;;
22675;SDS011;12521;43.310;21.876;2023-06-10T01:09:57;6.0;;;6.0;;
22675;SDS011;12521;43.310;21.876;2023-06-10T01:14:59;6.0;;;5.0;;
22675;SDS011;12521;43.310;21.876;2023-06-10T01:19:37;6.0;;;5.0;;
22675;SDS011;12521;43.310;21.876;2023-06-10T01:24:15;6.0;;;6.0;;
22675;SDS011;12521;43.310;21.876;2023-06-10T01:28:58;6.0;;;6.0;;
22675;SDS011;12521;43.310;21.876;2023-06-10T01:33:58;6.0;;;6.0;;
22675;SDS011;12521;43.310;21.876;2023-06-10T01:38:50;6.0;;;6.0;;
22675;SDS011;12521;43.310;21.876;2023-06-10T01:43:37;6.0;;;6.0;;
22675;SDS011;12521;43.310;21.876;2023-06-10T01:48:16;6.0;;;6.0;;
22675;SDS011;12521;43.310;21.876;2023-06-10T01:52:52;7.0;;;6.0;;
22675;SDS011;12521;43.310;21.876;2023-06-10T01:57:29;7.0;;;6.0;;
22675;SDS011;12521;43.310;21.876;2023-06-10T02:02:05;7.0;;;6.0;;
22675;SDS011;12521;43.310;21.876;2023-06-10T02:06:42;6.0;;;6.0;;
22675;SDS011;12521;43.310;21.876;2023-06-10T02:11:18;6.0;;;6.0;;
22675;SDS011;12521;43.310;21.876;2023-06-10T02:15:55;6.0;;;6.0;;
22675;SDS011;12521;43.310;21.876;2023-06-10T02:20:31;6.0;;;6.0;;
22675;SDS011;12521;43.310;21.876;2023-06-10T02:25:09;6.0;;;6.0;;
22675;SDS011;12521;43.310;21.876;2023-06-10T02:29:45;6.0;;;6.0;;
22675;SDS011;12521;43.310;21.876;2023-06-10T02:34:22;7.0;;;5.0;;
22675;SDS011;12521;43.310;21.876;2023-06-10T02:38:58;7.0;;;5.0;;
22675;SDS011;12521;43.310;21.876;2023-06-10T02:43:35;7.0;;;6.0;;
22675;SDS011;12521;43.310;21.876;2023-06-10T02:48:12;7.0;;;6.0;;
22675;SDS011;12521;43.310;21.876;2023-06-10T02:52:48;7.0;;;6.0;;
22675;SDS011;12521;43.310;21.876;2023-06-10T02:57:24;7.0;;;6.0;;
22675;SDS011;12521;43.310;21.876;2023-06-10T03:02:01;7.0;;;6.0;;
22675;SDS011;12521;43.310;21.876;2023-06-10T03:06:38;8.0;;;6.0;;
22675;SDS011;12521;43.310;21.876;2023-06-10T03:11:16;8.0;;;6.0;;
22675;SDS011;12521;43.310;21.876;2023-06-10T03:15:52;9.0;;;6.0;;
22675;SDS011;12521;43.310;21.876;2023-06-10T03:20:29;9.0;;;6.0;;
22675;SDS011;12521;43.310;21.876;2023-06-10T03:25:07;8.0;;;6.0;;
22675;SDS011;12521;43.310;21.876;2023-06-10T03:29:45;8.0;;;6.0;;
22675;SDS011;12521;43.310;21.876;2023-06-10T03:34:21;7.0;;;6.0;;
22675;SDS011;12521;43.310;21.876;2023-06-10T03:38:58;7.0;;;6.0;;
22675;SDS011;12521;43.310;21.876;2023-06-10T03:43:35;7.0;;;6.0;;
22675;SDS011;12521;43.310;21.876;2023-06-10T03:48:14;7.0;;;6.0;;
22675;SDS011;12521;43.310;21.876;2023-06-10T03:52:51;7.0;;;7.0;;
22675;SDS011;12521;43.310;21.876;2023-06-10T03:57:28;7.0;;;7.0;;
22675;SDS011;12521;43.310;21.876;2023-06-10T04:02:05;7.0;;;7.0;;
22675;SDS011;12521;43.310;21.876;2023-06-10T04:06:42;8.0;;;8.0;;
22675;SDS011;12521;43.310;21.876;2023-06-10T04:11:19;8.0;;;8.0;;
22675;SDS011;12521;43.310;21.876;2023-06-10T04:15:56;9.0;;;8.0;;
22675;SDS011;12521;43.310;21.876;2023-06-10T04:20:33;9.0;;;8.0;;
22675;SDS011;12521;43.310;21.876;2023-06-10T04:25:10;8.0;;;8.0;;
22675;SDS011;12521;43.310;21.876;2023-06-10T04:29:46;8.0;;;8.0;;
22675;SDS011;12521;43.310;21.876;2023-06-10T04:34:23;8.0;;;8.0;;
22675;SDS011;12521;43.310;21.876;2023-06-10T04:38:59;8.0;;;8.0;;
22675;SDS011;12521;43.310;21.876;2023-06-10T04:43:36;8.0;;;8.0;;
22675;SDS011;12521;43.310;21.876;2023-06-10T04:48:14;8.0;;;8.0;;
22675;SDS011;12521;43.310;21.876;2023-06-10T04:52:50;8.0;;;8.0;;
22675;SDS011;12521;43.310;21.876;2023-06-10T04:57:27;8.0;;;8.0;;
22675;SDS011;12521;43.310;21.876;2023-06-10T05:02:04;8.0;;;8.0;;
22675;SDS011;12521;43.310;21.876;2023-06-10T05:06:41;8.0;;;8.0;;
22675;SDS011;12521;43.310;21.876;2023-06-10T05:11:17;8.0;;;8.0;;
22675;SDS011;12521;43.310;21.876;2023-06-10T05:15:54;7.0;;;7.0;;
22675;SDS011;12521;43.310;21.876;2023-06-10T05:20:31;7.0;;;7.0;;
22675;SDS011;12521;43.310;21.876;2023-06-10T05:25:07;8.0;;;7.0;;
22675;SDS011;12521;43.310;21.876;2023-06-10T05:29:45;8.0;;;7.0;;
22675;SDS011;12521;43.310;21.876;2023-06-10T05:34:21;8.0;;;7.0;;
22675;SDS011;12521;43.310;21.876;2023-06-10T05:38:57;8.0;;;7.0;;
22675;SDS011;12521;43.310;21.876;2023-06-10T05:43:33;14.0;;;10.0;;
22675;SDS011;12521;43.310;21.876;2023-06-10T05:48:10;14.0;;;10.0;;
22675;SDS011;12521;43.310;21.876;2023-06-10T05:52:46;19.0;;;14.0;;
22675;SDS011;12521;43.310;21.876;2023-06-10T05:57:23;19.0;;;14.0;;
22675;SDS011;12521;43.310;21.876;2023-06-10T06:02:00;19.0;;;14.0;;
22675;SDS011;12521;43.310;21.876;2023-06-10T06:06:39;16.0;;;12.0;;
22675;SDS011;12521;43.310;21.876;2023-06-10T06:11:15;16.0;;;12.0;;
22675;SDS011;12521;43.310;21.876;2023-06-10T06:15:52;14.0;;;11.0;;
22675;SDS011;12521;43.310;21.876;2023-06-10T06:20:29;14.0;;;11.0;;
22675;SDS011;12521;43.310;21.876;2023-06-10T06:25:06;10.0;;;8.0;;
22675;SDS011;12521;43.310;21.876;2023-06-10T06:29:44;10.0;;;8.0;;
22675;SDS011;12521;43.310;21.876;2023-06-10T06:34:21;7.0;;;6.0;;
22675;SDS011;12521;43.310;21.876;2023-06-10T06:38:57;7.0;;;6.0;;
22675;SDS011;12521;43.310;21.876;2023-06-10T06:43:34;7.0;;;6.0;;
22675;SDS011;12521;43.310;21.876;2023-06-10T06:48:11;7.0;;;6.0;;
22675;SDS011;12521;43.310;21.876;2023-06-10T06:52:49;7.0;;;6.0;;
22675;SDS011;12521;43.310;21.876;2023-06-10T06:57:25;7.0;;;6.0;;
22675;SDS011;12521;43.310;21.876;2023-06-10T07:02:02;7.0;;;6.0;;
22675;SDS011;12521;43.310;21.876;2023-06-10T07:06:41;7.0;;;6.0;;
22675;SDS011;12521;43.310;21.876;2023-06-10T07:11:17;7.0;;;6.0;;
22675;SDS011;12521;43.310;21.876;2023-06-10T07:15:54;7.0;;;6.0;;
22675;SDS011;12521;43.310;21.876;2023-06-10T07:20:30;7.0;;;6.0;;
22675;SDS011;12521;43.310;21.876;2023-06-10T07:25:08;8.0;;;6.0;;
22675;SDS011;12521;43.310;21.876;2023-06-10T07:29:45;8.0;;;6.0;;
22675;SDS011;12521;43.310;21.876;2023-06-10T07:34:21;8.0;;;7.0;;
22675;SDS011;12521;43.310;21.876;2023-06-10T07:38:58;8.0;;;7.0;;
22675;SDS011;12521;43.310;21.876;2023-06-10T07:43:35;8.0;;;6.0;;
22675;SDS011;12521;43.310;21.876;2023-06-10T07:48:13;8.0;;;6.0;;
22675;SDS011;12521;43.310;21.876;2023-06-10T07:52:49;7.0;;;6.0;;
22675;SDS011;12521;43.310;21.876;2023-06-10T07:57:26;7.0;;;6.0;;
22675;SDS011;12521;43.310;21.876;2023-06-10T08:02:03;7.0;;;6.0;;
22675;SDS011;12521;43.310;21.876;2023-06-10T08:06:41;8.0;;;6.0;;
22675;SDS011;12521;43.310;21.876;2023-06-10T08:11:17;8.0;;;6.0;;
22675;SDS011;12521;43.310;21.876;2023-06-10T08:15:54;8.0;;;7.0;;
22675;SDS011;12521;43.310;21.876;2023-06-10T08:20:30;8.0;;;7.0;;
22675;SDS011;12521;43.310;21.876;2023-06-10T08:25:08;8.0;;;7.0;;
22675;SDS011;12521;43.310;21.876;2023-06-10T08:29:45;8.0;;;7.0;;
22675;SDS011;12521;43.310;21.876;2023-06-10T08:34:22;8.0;;;7.0;;
22675;SDS011;12521;43.310;21.876;2023-06-10T08:38:58;8.0;;;7.0;;
22675;SDS011;12521;43.310;21.876;2023-06-10T08:43:44;8.0;;;8.0;;
22675;SDS011;12521;43.310;21.876;2023-06-10T08:48:54;8.0;;;8.0;;
22675;SDS011;12521;43.310;21.876;2023-06-10T08:53:50;8.0;;;8.0;;
22675;SDS011;12521;43.310;21.876;2023-06-10T08:58:57;8.0;;;8.0;;
22675;SDS011;12521;43.310;21.876;2023-06-10T09:03:39;8.0;;;8.0;;
22675;SDS011;12521;43.310;21.876;2023-06-10T09:08:19;8.0;;;8.0;;
22675;SDS011;12521;43.310;21.876;2023-06-10T09:12:57;8.0;;;8.0;;
22675;SDS011;12521;43.310;21.876;2023-06-10T09:17:35;8.0;;;8.0;;
22675;SDS011;12521;43.310;21.876;2023-06-10T09:22:12;8.0;;;8.0;;
22675;SDS011;12521;43.310;21.876;2023-06-10T09:26:49;10.0;;;10.0;;
22675;SDS011;12521;43.310;21.876;2023-06-10T09:31:40;10.0;;;10.0;;
22675;SDS011;12521;43.310;21.876;2023-06-10T09:36:21;13.0;;;11.0;;
22675;SDS011;12521;43.310;21.876;2023-06-10T09:41:00;13.0;;;11.0;;
22675;SDS011;12521;43.310;21.876;2023-06-10T09:45:39;13.0;;;11.0;;
22675;SDS011;12521;43.310;21.876;2023-06-10T09:50:15;13.0;;;11.0;;
22675;SDS011;12521;43.310;21.876;2023-06-10T09:54:53;13.0;;;11.0;;
22675;SDS011;12521;43.310;21.876;2023-06-10T09:59:38;13.0;;;11.0;;
22675;SDS011;12521;43.310;21.876;2023-06-10T10:04:23;14.0;;;12.0;;
22675;SDS011;12521;43.310;21.876;2023-06-10T10:09:01;14.0;;;12.0;;
22675;SDS011;12521;43.310;21.876;2023-06-10T10:13:39;15.0;;;13.0;;
22675;SDS011;12521;43.310;21.876;2023-06-10T10:18:28;15.0;;;13.0;;
22675;SDS011;12521;43.310;21.876;2023-06-10T10:23:20;14.0;;;13.0;;
22675;SDS011;12521;43.310;21.876;2023-06-10T10:28:45;14.0;;;13.0;;
22675;SDS011;12521;43.310;21.876;2023-06-10T10:34:02;14.0;;;13.0;;
22675;SDS011;12521;43.310;21.876;2023-06-10T10:38:54;14.0;;;13.0;;
22675;SDS011;12521;43.310;21.876;2023-06-10T10:43:34;14.0;;;12.0;;
22675;SDS011;12521;43.310;21.876;2023-06-10T10:48:14;14.0;;;12.0;;
22675;SDS011;12521;43.310;21.876;2023-06-10T10:52:55;13.0;;;12.0;;
22675;SDS011;12521;43.310;21.876;2023-06-10T10:57:38;13.0;;;12.0;;
22675;SDS011;12521;43.310;21.876;2023-06-10T11:02:16;13.0;;;12.0;;
22675;SDS011;12521;43.310;21.876;2023-06-10T11:07:10;14.0;;;12.0;;
22675;SDS011;12521;43.310;21.876;2023-06-10T11:11:49;14.0;;;12.0;;
22675;SDS011;12521;43.310;21.876;2023-06-10T11:16:27;15.0;;;13.0;;
22675;SDS011;12521;43.310;21.876;2023-06-10T11:21:16;15.0;;;13.0;;
22675;SDS011;12521;43.310;21.876;2023-06-10T11:26:11;14.0;;;13.0;;
22675;SDS011;12521;43.310;21.876;2023-06-10T11:31:08;14.0;;;13.0;;
22675;SDS011;12521;43.310;21.876;2023-06-10T11:35:58;14.0;;;13.0;;
22675;SDS011;12521;43.310;21.876;2023-06-10T11:40:36;14.0;;;13.0;;
22675;SDS011;12521;43.310;21.876;2023-06-10T11:45:15;12.0;;;11.0;;
22675;SDS011;12521;43.310;21.876;2023-06-10T11:49:56;12.0;;;11.0;;
22675;SDS011;12521;43.310;21.876;2023-06-10T11:54:34;10.0;;;9.0;;
22675;SDS011;12521;43.310;21.876;2023-06-10T11:59:10;10.0;;;9.0;;
22675;SDS011;12521;43.310;21.876;2023-06-10T12:03:47;10.0;;;9.0;;
22675;SDS011;12521;43.310;21.876;2023-06-10T12:08:41;10.0;;;9.0;;
22675;SDS011;12521;43.310;21.876;2023-06-10T12:13:20;9.0;;;9.0;;
22675;SDS011;12521;43.310;21.876;2023-06-10T12:17:58;9.0;;;9.0;;
22675;SDS011;12521;43.310;21.876;2023-06-10T12:22:37;9.0;;;9.0;;
22675;SDS011;12521;43.310;21.876;2023-06-10T12:27:19;8.0;;;8.0;;
22675;SDS011;12521;43.310;21.876;2023-06-10T12:32:00;8.0;;;8.0;;
22675;SDS011;12521;43.310;21.876;2023-06-10T12:36:48;7.0;;;7.0;;
22675;SDS011;12521;43.310;21.876;2023-06-10T12:41:25;7.0;;;7.0;;
22675;SDS011;12521;43.310;21.876;2023-06-10T12:46:09;8.0;;;8.0;;
22675;SDS011;12521;43.310;21.876;2023-06-10T12:50:51;8.0;;;8.0;;
22675;SDS011;12521;43.310;21.876;2023-06-10T12:55:34;9.0;;;8.0;;
22675;SDS011;12521;43.310;21.876;2023-06-10T13:00:12;9.0;;;8.0;;
22675;SDS011;12521;43.310;21.876;2023-06-10T13:04:53;9.0;;;8.0;;
22675;SDS011;12521;43.310;21.876;2023-06-10T13:09:29;9.0;;;8.0;;
22675;SDS011;12521;43.310;21.876;2023-06-10T13:14:06;9.0;;;8.0;;
22675;SDS011;12521;43.310;21.876;2023-06-10T13:18:42;9.0;;;8.0;;
22675;SDS011;12521;43.310;21.876;2023-06-10T13:23:19;8.0;;;7.0;;
22675;SDS011;12521;43.310;21.876;2023-06-10T13:27:55;8.0;;;7.0;;
22675;SDS011;12521;43.310;21.876;2023-06-10T13:32:31;8.0;;;7.0;;
22675;SDS011;12521;43.310;21.876;2023-06-10T13:37:08;7.0;;;6.0;;
22675;SDS011;12521;43.310;21.876;2023-06-10T13:41:44;7.0;;;6.0;;
22675;SDS011;12521;43.310;21.876;2023-06-10T13:46:20;7.0;;;6.0;;
22675;SDS011;12521;43.310;21.876;2023-06-10T13:50:57;7.0;;;6.0;;
22675;SDS011;12521;43.310;21.876;2023-06-10T13:55:34;7.0;;;7.0;;
22675;SDS011;12521;43.310;21.876;2023-06-10T14:00:11;7.0;;;7.0;;
22675;SDS011;12521;43.310;21.876;2023-06-10T14:04:51;8.0;;;7.0;;
22675;SDS011;12521;43.310;21.876;2023-06-10T14:09:28;8.0;;;7.0;;
22675;SDS011;12521;43.310;21.876;2023-06-10T14:14:04;8.0;;;7.0;;
22675;SDS011;12521;43.310;21.876;2023-06-10T14:18:41;8.0;;;7.0;;
22675;SDS011;12521;43.310;21.876;2023-06-10T14:23:18;10.0;;;8.0;;
22675;SDS011;12521;43.310;21.876;2023-06-10T14:27:54;10.0;;;8.0;;
22675;SDS011;12521;43.310;21.876;2023-06-10T14:32:31;10.0;;;8.0;;
22675;SDS011;12521;43.310;21.876;2023-06-10T14:37:08;11.0;;;9.0;;
22675;SDS011;12521;43.310;21.876;2023-06-10T14:41:44;11.0;;;9.0;;
22675;SDS011;12521;43.310;21.876;2023-06-10T14:46:21;11.0;;;10.0;;
22675;SDS011;12521;43.310;21.876;2023-06-10T14:50:58;11.0;;;10.0;;
22675;SDS011;12521;43.310;21.876;2023-06-10T14:55:35;11.0;;;10.0;;
22675;SDS011;12521;43.310;21.876;2023-06-10T15:00:13;11.0;;;10.0;;
22675;SDS011;12521;43.310;21.876;2023-06-10T15:04:52;11.0;;;10.0;;
22675;SDS011;12521;43.310;21.876;2023-06-10T15:09:29;11.0;;;10.0;;
22675;SDS011;12521;43.310;21.876;2023-06-10T15:14:05;11.0;;;10.0;;
22675;SDS011;12521;43.310;21.876;2023-06-10T15:18:42;11.0;;;10.0;;
22675;SDS011;12521;43.310;21.876;2023-06-10T15:23:18;10.0;;;10.0;;
22675;SDS011;12521;43.310;21.876;2023-06-10T15:27:55;10.0;;;10.0;;
22675;SDS011;12521;43.310;21.876;2023-06-10T15:32:32;10.0;;;10.0;;
22675;SDS011;12521;43.310;21.876;2023-06-10T15:37:08;10.0;;;9.0;;
22675;SDS011;12521;43.310;21.876;2023-06-10T15:41:45;10.0;;;9.0;;
22675;SDS011;12521;43.310;21.876;2023-06-10T15:46:22;11.0;;;9.0;;
22675;SDS011;12521;43.310;21.876;2023-06-10T15:50:59;11.0;;;9.0;;
22675;SDS011;12521;43.310;21.876;2023-06-10T15:55:35;12.0;;;9.0;;
22675;SDS011;12521;43.310;21.876;2023-06-10T16:00:13;12.0;;;9.0;;
22675;SDS011;12521;43.310;21.876;2023-06-10T16:04:53;10.0;;;8.0;;
22675;SDS011;12521;43.310;21.876;2023-06-10T16:09:29;10.0;;;8.0;;
22675;SDS011;12521;43.310;21.876;2023-06-10T16:14:05;9.0;;;8.0;;
22675;SDS011;12521;43.310;21.876;2023-06-10T16:18:42;9.0;;;8.0;;
22675;SDS011;12521;43.310;21.876;2023-06-10T16:23:18;8.0;;;8.0;;
22675;SDS011;12521;43.310;21.876;2023-06-10T16:27:55;8.0;;;8.0;;
22675;SDS011;12521;43.310;21.876;2023-06-10T16:32:33;8.0;;;8.0;;
22675;SDS011;12521;43.310;21.876;2023-06-10T16:37:09;8.0;;;8.0;;
22675;SDS011;12521;43.310;21.876;2023-06-10T16:41:46;8.0;;;8.0;;
22675;SDS011;12521;43.310;21.876;2023-06-10T16:46:23;8.0;;;8.0;;
22675;SDS011;12521;43.310;21.876;2023-06-10T16:50:59;8.0;;;8.0;;
22675;SDS011;12521;43.310;21.876;2023-06-10T16:55:36;9.0;;;8.0;;
22675;SDS011;12521;43.310;21.876;2023-06-10T17:00:14;9.0;;;8.0;;
22675;SDS011;12521;43.310;21.876;2023-06-10T17:04:53;8.0;;;7.0;;
22675;SDS011;12521;43.310;21.876;2023-06-10T17:09:30;8.0;;;7.0;;
22675;SDS011;12521;43.310;21.876;2023-06-10T17:14:07;7.0;;;6.0;;
22675;SDS011;12521;43.310;21.876;2023-06-10T17:18:44;7.0;;;6.0;;
22675;SDS011;12521;43.310;21.876;2023-06-10T17:23:21;7.0;;;6.0;;
22675;SDS011;12521;43.310;21.876;2023-06-10T17:27:58;7.0;;;6.0;;
22675;SDS011;12521;43.310;21.876;2023-06-10T17:32:35;7.0;;;6.0;;
22675;SDS011;12521;43.310;21.876;2023-06-10T17:37:11;7.0;;;7.0;;
22675;SDS011;12521;43.310;21.876;2023-06-10T17:41:47;7.0;;;7.0;;
22675;SDS011;12521;43.310;21.876;2023-06-10T17:46:24;7.0;;;7.0;;
22675;SDS011;12521;43.310;21.876;2023-06-10T17:51:00;7.0;;;7.0;;
22675;SDS011;12521;43.310;21.876;2023-06-10T17:55:37;7.0;;;7.0;;
22675;SDS011;12521;43.310;21.876;2023-06-10T18:00:14;7.0;;;7.0;;
22675;SDS011;12521;43.310;21.876;2023-06-10T18:04:53;8.0;;;8.0;;
22675;SDS011;12521;43.310;21.876;2023-06-10T18:09:29;8.0;;;8.0;;
22675;SDS011;12521;43.310;21.876;2023-06-10T18:14:06;9.0;;;8.0;;
22675;SDS011;12521;43.310;21.876;2023-06-10T18:18:43;9.0;;;8.0;;
22675;SDS011;12521;43.310;21.876;2023-06-10T18:23:20;10.0;;;8.0;;
22675;SDS011;12521;43.310;21.876;2023-06-10T18:27:57;10.0;;;8.0;;
22675;SDS011;12521;43.310;21.876;2023-06-10T18:32:33;10.0;;;8.0;;
22675;SDS011;12521;43.310;21.876;2023-06-10T18:37:10;10.0;;;8.0;;
22675;SDS011;12521;43.310;21.876;2023-06-10T18:41:46;10.0;;;8.0;;
22675;SDS011;12521;43.310;21.876;2023-06-10T18:46:22;12.0;;;10.0;;
22675;SDS011;12521;43.310;21.876;2023-06-10T18:50:59;12.0;;;10.0;;
22675;SDS011;12521;43.310;21.876;2023-06-10T18:55:35;13.0;;;11.0;;
22675;SDS011;12521;43.310;21.876;2023-06-10T19:00:13;13.0;;;11.0;;
22675;SDS011;12521;43.310;21.876;2023-06-10T19:04:51;13.0;;;11.0;;
22675;SDS011;12521;43.310;21.876;2023-06-10T19:09:28;13.0;;;11.0;;
22675;SDS011;12521;43.310;21.876;2023-06-10T19:14:04;13.0;;;11.0;;
22675;SDS011;12521;43.310;21.876;2023-06-10T19:18:40;13.0;;;11.0;;
22675;SDS011;12521;43.310;21.876;2023-06-10T19:23:17;12.0;;;10.0;;
22675;SDS011;12521;43.310;21.876;2023-06-10T19:27:54;12.0;;;10.0;;
22675;SDS011;12521;43.310;21.876;2023-06-10T19:32:30;12.0;;;10.0;;
22675;SDS011;12521;43.310;21.876;2023-06-10T19:37:07;11.0;;;10.0;;
22675;SDS011;12521;43.310;21.876;2023-06-10T19:41:44;11.0;;;10.0;;
22675;SDS011;12521;43.310;21.876;2023-06-10T19:46:21;11.0;;;10.0;;
22675;SDS011;12521;43.310;21.876;2023-06-10T19:50:58;11.0;;;10.0;;
22675;SDS011;12521;43.310;21.876;2023-06-10T19:55:34;11.0;;;10.0;;
22675;SDS011;12521;43.310;21.876;2023-06-10T20:00:11;11.0;;;10.0;;
22675;SDS011;12521;43.310;21.876;2023-06-10T20:04:52;12.0;;;10.0;;
22675;SDS011;12521;43.310;21.876;2023-06-10T20:09:29;12.0;;;10.0;;
22675;SDS011;12521;43.310;21.876;2023-06-10T20:14:06;12.0;;;11.0;;
22675;SDS011;12521;43.310;21.876;2023-06-10T20:18:42;12.0;;;11.0;;
22675;SDS011;12521;43.310;21.876;2023-06-10T20:23:19;12.0;;;11.0;;
22675;SDS011;12521;43.310;21.876;2023-06-10T20:27:55;11.0;;;10.0;;
22675;SDS011;12521;43.310;21.876;2023-06-10T20:32:31;11.0;;;10.0;;
22675;SDS011;12521;43.310;21.876;2023-06-10T20:37:08;10.0;;;9.0;;
22675;SDS011;12521;43.310;21.876;2023-06-10T20:41:44;10.0;;;9.0;;
22675;SDS011;12521;43.310;21.876;2023-06-10T20:46:21;11.0;;;10.0;;
22675;SDS011;12521;43.310;21.876;2023-06-10T20:50:58;11.0;;;10.0;;
22675;SDS011;12521;43.310;21.876;2023-06-10T20:55:34;12.0;;;10.0;;
22675;SDS011;12521;43.310;21.876;2023-06-10T21:00:12;12.0;;;10.0;;
22675;SDS011;12521;43.310;21.876;2023-06-10T21:04:51;12.0;;;10.0;;
22675;SDS011;12521;43.310;21.876;2023-06-10T21:09:27;12.0;;;10.0;;
22675;SDS011;12521;43.310;21.876;2023-06-10T21:14:04;11.0;;;10.0;;
22675;SDS011;12521;43.310;21.876;2023-06-10T21:18:40;11.0;;;10.0;;
22675;SDS011;12521;43.310;21.876;2023-06-10T21:23:16;11.0;;;10.0;;
22675;SDS011;12521;43.310;21.876;2023-06-10T21:27:53;12.0;;;10.0;;
22675;SDS011;12521;43.310;21.876;2023-06-10T21:32:29;12.0;;;10.0;;
22675;SDS011;12521;43.310;21.876;2023-06-10T21:37:05;13.0;;;10.0;;
22675;SDS011;12521;43.310;21.876;2023-06-10T21:41:42;13.0;;;10.0;;
22675;SDS011;12521;43.310;21.876;2023-06-10T21:46:18;13.0;;;10.0;;
22675;SDS011;12521;43.310;21.876;2023-06-10T21:50:54;13.0;;;10.0;;
22675;SDS011;12521;43.310;21.876;2023-06-10T21:55:32;13.0;;;10.0;;
22675;SDS011;12521;43.310;21.876;2023-06-10T22:00:09;13.0;;;10.0;;
22675;SDS011;12521;43.310;21.876;2023-06-10T22:04:50;13.0;;;10.0;;
22675;SDS011;12521;43.310;21.876;2023-06-10T22:09:27;13.0;;;10.0;;
22675;SDS011;12521;43.310;21.876;2023-06-10T22:14:05;13.0;;;11.0;;
22675;SDS011;12521;43.310;21.876;2023-06-10T22:18:42;13.0;;;11.0;;
22675;SDS011;12521;43.310;21.876;2023-06-10T22:23:19;13.0;;;11.0;;
22675;SDS011;12521;43.310;21.876;2023-06-10T22:27:58;13.0;;;10.0;;
22675;SDS011;12521;43.310;21.876;2023-06-10T22:32:34;13.0;;;10.0;;
22675;SDS011;12521;43.310;21.876;2023-06-10T22:37:11;13.0;;;10.0;;
22675;SDS011;12521;43.310;21.876;2023-06-10T22:41:48;13.0;;;10.0;;
22675;SDS011;12521;43.310;21.876;2023-06-10T22:46:25;13.0;;;10.0;;
22675;SDS011;12521;43.310;21.876;2023-06-10T22:51:02;13.0;;;10.0;;
22675;SDS011;12521;43.310;21.876;2023-06-10T22:55:38;13.0;;;10.0;;
22675;SDS011;12521;43.310;21.876;2023-06-10T23:00:15;13.0;;;10.0;;
22675;SDS011;12521;43.310;21.876;2023-06-10T23:04:53;12.0;;;10.0;;
22675;SDS011;12521;43.310;21.876;2023-06-10T23:09:29;12.0;;;10.0;;
22675;SDS011;12521;43.310;21.876;2023-06-10T23:14:06;10.0;;;9.0;;
22675;SDS011;12521;43.310;21.876;2023-06-10T23:18:43;10.0;;;9.0;;
22675;SDS011;12521;43.310;21.876;2023-06-10T23:23:19;10.0;;;9.0;;
22675;SDS011;12521;43.310;21.876;2023-06-10T23:27:56;10.0;;;8.0;;
22675;SDS011;12521;43.310;21.876;2023-06-10T23:32:32;10.0;;;8.0;;
22675;SDS011;12521;43.310;21.876;2023-06-10T23:37:09;11.0;;;8.0;;
22675;SDS011;12521;43.310;21.876;2023-06-10T23:41:45;11.0;;;8.0;;
22675;SDS011;12521;43.310;21.876;2023-06-10T23:46:21;11.0;;;8.0;;
22675;SDS011;12521;43.310;21.876;2023-06-10T23:50:58;11.0;;;8.0;;
22675;SDS011;12521;43.310;21.876;2023-06-10T23:55:34;11.0;;;9.0;;
